< < Back
Terminal Aerodrome Forecast


Current Version              Previous Versions:   1  2  3  4  5  6  7  8  9  

Terminal Aerodrome Forecast

537
FTUS42 KTAE 252300
TAFABY
TAF
KABY 252320Z 2600/2624 33005KT P6SM SKC=



Latest METAR

909
SAUS70 KWBC 260400 RRA
MTRABY
METAR KABY 260353Z 00000KT 10SM CLR 12/10 A3005 RMK AO2 SLP175
T01170100


USA.gov is the U.S. government's official web portal to all federal, state and local government web resources and services.